Time;durP1;ratioP1;P1;durP2;ratioP2;P2;SDS_P1;SDS_P2;PMS_P1;PMS_P2;Temp;Humidity;BMP_temperature;BMP_pressure;BME280_temperature;BME280_humidity;BME280_pressure;Samples;Min_cycle;Max_cycle;Signal;HPM_P1;HPM_P2
2022/09/04 00:01:28;;;;;;;5.80;1.15;;;17.40;80.40;;;;;;5071708;28;20399;-72
2022/09/04 00:04:16;;;;;;;3.30;1.20;;;17.30;80.50;;;;;;5073208;28;20051;-72
2022/09/04 00:07:08;;;;;;;3.88;1.30;;;17.30;80.80;;;;;;5072867;28;20092;-73
2022/09/04 00:09:48;;;;;;;3.08;1.00;;;17.20;80.90;;;;;;5072858;28;20051;-73
2022/09/04 00:12:22;;;;;;;3.75;1.00;;;17.20;81.00;;;;;;5071452;28;20519;-72
2022/09/04 00:15:01;;;;;;;3.53;1.10;;;17.20;81.00;;;;;;5073055;28;20082;-71
2022/09/04 00:17:34;;;;;;;3.40;1.23;;;17.10;81.00;;;;;;5071458;28;20395;-71
2022/09/04 00:20:25;;;;;;;1.42;0.90;;;17.10;81.50;;;;;;5071631;28;20044;-72
2022/09/04 00:22:59;;;;;;;6.85;1.08;;;17.10;81.60;;;;;;5072933;28;20041;-73
2022/09/04 00:25:34;;;;;;;6.10;2.03;;;17.00;81.30;;;;;;5072568;28;20089;-72
2022/09/04 00:28:17;;;;;;;5.25;1.00;;;16.90;81.50;;;;;;5072494;28;20052;-71
2022/09/04 00:30:54;;;;;;;5.78;1.20;;;16.80;81.70;;;;;;5072656;28;20123;-71
2022/09/04 00:33:34;;;;;;;4.00;1.30;;;16.90;81.70;;;;;;5072760;28;20049;-69
2022/09/04 00:36:02;;;;;;;4.75;1.10;;;16.80;82.00;;;;;;5072316;28;20097;-70
2022/09/04 00:38:36;;;;;;;4.03;1.08;;;16.80;81.80;;;;;;5072115;28;20040;-72
2022/09/04 00:41:24;;;;;;;3.17;1.20;;;16.70;81.70;;;;;;5072634;28;20049;-71
2022/09/04 00:44:21;;;;;;;6.03;1.27;;;16.70;82.20;;;;;;5054568;28;20052;-72
2022/09/04 00:47:05;;;;;;;3.72;1.00;;;16.70;82.40;;;;;;5071338;28;20052;-72
2022/09/04 00:49:51;;;;;;;7.60;1.07;;;16.60;82.30;;;;;;5070535;28;20052;-73
2022/09/04 00:52:54;;;;;;;4.30;0.90;;;16.60;82.80;;;;;;5054117;28;20484;-71
2022/09/04 00:55:53;;;;;;;2.85;1.23;;;16.60;83.20;;;;;;5054123;28;20041;-71
2022/09/04 00:58:25;;;;;;;5.43;1.75;;;16.50;82.90;;;;;;5072535;28;20058;-70
2022/09/04 01:00:55;;;;;;;4.22;1.13;;;16.50;82.70;;;;;;5070655;28;20052;-71
2022/09/04 01:03:42;;;;;;;4.57;1.30;;;16.40;82.80;;;;;;5072037;28;20495;-71
2022/09/04 01:06:23;;;;;;;3.40;1.05;;;16.40;83.50;;;;;;5072149;28;20084;-72
2022/09/04 01:09:29;;;;;;;6.40;1.30;;;16.40;83.30;;;;;;5071605;28;20049;-71
2022/09/04 01:12:07;;;;;;;3.00;1.10;;;16.40;83.70;;;;;;5070301;28;20114;-71
2022/09/04 01:15:02;;;;;;;2.78;1.00;;;16.30;83.60;;;;;;5071632;28;20491;-72
2022/09/04 01:17:46;;;;;;;3.45;1.35;;;16.30;83.80;;;;;;5051933;28;20041;-72
2022/09/04 01:20:49;;;;;;;3.87;1.40;;;16.20;83.30;;;;;;5052385;28;20480;-72
2022/09/04 01:23:21;;;;;;;2.35;1.15;;;16.20;84.40;;;;;;5051339;28;20083;-71
2022/09/04 01:26:12;;;;;;;4.50;1.35;;;16.20;83.80;;;;;;5050328;28;20053;-73
2022/09/04 01:29:09;;;;;;;2.38;1.13;;;16.10;83.90;;;;;;5050241;28;20053;-72
2022/09/04 01:32:08;;;;;;;3.75;1.10;;;16.10;84.30;;;;;;5057013;28;20048;-72
2022/09/04 01:35:00;;;;;;;2.90;1.17;;;16.00;84.80;;;;;;5049084;28;20190;-71
2022/09/04 01:37:42;;;;;;;5.25;1.27;;;16.00;84.40;;;;;;5048825;28;20053;-70
2022/09/04 01:40:56;;;;;;;3.78;1.25;;;16.00;84.70;;;;;;5048097;28;20045;-72
2022/09/04 01:43:23;;;;;;;3.05;0.98;;;15.90;84.80;;;;;;4950701;29;20059;-71
2022/09/04 01:46:14;;;;;;;2.88;1.25;;;15.90;84.60;;;;;;4950760;29;20055;-71
2022/09/04 01:48:50;;;;;;;5.32;1.27;;;15.90;85.40;;;;;;4950644;29;20047;-72
2022/09/04 01:51:34;;;;;;;9.00;1.40;;;15.80;85.20;;;;;;4934283;29;20458;-70
2022/09/04 01:54:30;;;;;;;2.95;1.30;;;15.80;84.90;;;;;;4950756;29;20415;-71
2022/09/04 01:57:14;;;;;;;4.40;1.60;;;15.80;85.50;;;;;;4950459;29;20150;-71
2022/09/04 01:59:57;;;;;;;4.35;1.52;;;15.80;84.90;;;;;;4950338;29;20102;-71
2022/09/04 02:02:53;;;;;;;4.43;1.38;;;15.80;85.40;;;;;;4948651;29;20082;-72
2022/09/04 02:05:34;;;;;;;2.65;1.20;;;15.80;85.50;;;;;;4950659;29;20059;-74
2022/09/04 02:08:05;;;;;;;4.75;1.27;;;15.70;86.00;;;;;;4950539;29;20415;-71
2022/09/04 02:11:01;;;;;;;4.65;1.42;;;15.70;85.80;;;;;;4962648;28;20058;-72
2022/09/04 02:13:52;;;;;;;2.35;1.38;;;15.70;86.30;;;;;;4970139;28;20121;-75
2022/09/04 02:16:29;;;;;;;6.35;1.30;;;15.70;85.90;;;;;;4973736;28;20406;-71
2022/09/04 02:19:02;;;;;;;3.55;1.55;;;15.70;85.70;;;;;;5060565;28;20041;-73
2022/09/04 02:21:46;;;;;;;5.25;1.10;;;15.70;85.80;;;;;;5068527;28;20056;-72
2022/09/04 02:24:32;;;;;;;4.72;1.40;;;15.70;86.50;;;;;;5049057;28;20504;-74
2022/09/04 02:27:40;;;;;;;4.70;1.58;;;15.70;86.40;;;;;;5069389;28;20063;-72
2022/09/04 02:30:10;;;;;;;7.90;1.40;;;15.70;86.80;;;;;;5028036;28;20423;-75
2022/09/04 02:32:48;;;;;;;4.80;1.67;;;15.70;87.10;;;;;;5011388;28;20061;-73
2022/09/04 02:35:26;;;;;;;4.38;1.63;;;15.60;86.70;;;;;;5027652;28;20439;-72
2022/09/04 02:38:18;;;;;;;4.43;1.63;;;15.60;86.50;;;;;;5028194;28;20046;-69
2022/09/04 02:40:50;;;;;;;4.25;1.60;;;15.60;86.80;;;;;;5027771;28;20592;-68
2022/09/04 02:43:56;;;;;;;5.30;1.42;;;15.60;86.70;;;;;;5012167;28;20065;-71
2022/09/04 02:46:43;;;;;;;4.70;1.38;;;15.50;88.10;;;;;;5008307;28;20061;-70
2022/09/04 02:49:28;;;;;;;4.32;1.60;;;15.50;87.40;;;;;;5008464;28;20077;-69
2022/09/04 02:52:25;;;;;;;4.75;1.75;;;15.50;87.20;;;;;;5008837;28;20042;-71
2022/09/04 02:55:10;;;;;;;4.47;1.38;;;15.50;88.10;;;;;;5008698;28;20053;-69
2022/09/04 02:58:00;;;;;;;2.88;1.38;;;15.50;87.40;;;;;;5027398;28;20044;-70
2022/09/04 03:00:45;;;;;;;6.60;1.80;;;15.40;88.20;;;;;;5027156;28;20112;-70
2022/09/04 03:03:11;;;;;;;6.70;1.67;;;15.40;88.60;;;;;;5010709;28;20087;-68
2022/09/04 03:06:00;;;;;;;5.07;1.60;;;15.30;87.40;;;;;;5027301;28;20080;-69
2022/09/04 03:09:13;;;;;;;5.93;1.52;;;15.20;88.70;;;;;;5069908;28;20070;-69
2022/09/04 03:11:47;;;;;;;6.38;1.60;;;15.20;88.40;;;;;;5037255;28;20110;-69
2022/09/04 03:14:41;;;;;;;3.97;1.58;;;15.20;88.30;;;;;;5028951;28;20041;-70
2022/09/04 03:17:12;;;;;;;5.10;1.70;;;15.20;88.50;;;;;;5044668;28;20040;-68
2022/09/04 03:19:52;;;;;;;5.32;1.50;;;15.20;88.60;;;;;;5029838;28;20128;-70
2022/09/04 03:22:39;;;;;;;8.32;1.80;;;15.10;88.50;;;;;;5046924;28;20107;-69
2022/09/04 03:25:10;;;;;;;3.95;1.60;;;15.10;89.20;;;;;;5047019;28;20154;-69
2022/09/04 03:27:36;;;;;;;5.32;1.50;;;15.00;88.60;;;;;;5029510;28;20061;-69
2022/09/04 03:30:10;;;;;;;4.68;1.45;;;15.00;88.80;;;;;;5046566;28;20093;-69
2022/09/04 03:33:03;;;;;;;7.93;1.77;;;15.00;89.60;;;;;;5033566;28;20611;-69
2022/09/04 03:35:36;;;;;;;4.20;1.80;;;15.00;89.90;;;;;;5050891;28;20045;-69
2022/09/04 03:38:20;;;;;;;6.25;1.70;;;14.90;89.50;;;;;;5050316;28;20045;-69
2022/09/04 03:41:06;;;;;;;7.47;1.67;;;14.80;89.90;;;;;;5050996;28;20080;-70
2022/09/04 03:43:53;;;;;;;3.90;1.75;;;14.80;89.90;;;;;;5051347;28;20536;-69
2022/09/04 03:46:21;;;;;;;2.95;1.45;;;14.80;90.00;;;;;;5050987;28;20167;-70
2022/09/04 03:49:16;;;;;;;3.42;1.52;;;14.80;89.70;;;;;;5061923;28;20056;-69
2022/09/04 03:51:51;;;;;;;8.93;1.80;;;14.80;90.30;;;;;;5072983;28;20392;-69
2022/09/04 03:54:55;;;;;;;6.32;2.00;;;14.70;90.00;;;;;;5071302;28;20551;-69
2022/09/04 03:57:34;;;;;;;3.30;1.42;;;14.70;90.00;;;;;;5030000;28;20228;-68
2022/09/04 04:00:11;;;;;;;4.45;1.48;;;14.70;90.20;;;;;;5013923;28;20049;-69
2022/09/04 04:02:48;;;;;;;6.03;1.92;;;14.70;90.20;;;;;;5029659;28;20065;-69
2022/09/04 04:05:35;;;;;;;3.28;1.40;;;14.70;90.20;;;;;;5013566;28;20052;-69
2022/09/04 04:08:38;;;;;;;7.63;1.88;;;14.60;90.40;;;;;;5030026;28;20519;-69
2022/09/04 04:11:29;;;;;;;4.97;1.83;;;14.60;90.60;;;;;;5013424;28;20456;-69
2022/09/04 04:14:16;;;;;;;7.57;2.25;;;14.60;90.70;;;;;;5022228;28;20100;-68
2022/09/04 04:17:07;;;;;;;3.85;1.80;;;14.60;90.50;;;;;;5029165;28;20849;-69
2022/09/04 04:19:36;;;;;;;6.50;1.75;;;14.60;90.90;;;;;;4954625;28;20141;-69
2022/09/04 04:22:01;;;;;;;5.68;1.90;;;14.60;90.40;;;;;;4970516;28;20054;-69
2022/09/04 04:24:47;;;;;;;3.42;1.55;;;14.60;90.40;;;;;;4970701;28;20054;-69
2022/09/04 04:27:41;;;;;;;3.67;1.55;;;14.60;90.80;;;;;;4966338;28;20414;-68
2022/09/04 04:30:13;;;;;;;3.88;1.67;;;14.60;90.70;;;;;;5000715;28;20058;-69
2022/09/04 04:32:53;;;;;;;6.72;1.88;;;14.50;90.50;;;;;;4994648;28;20080;-69
2022/09/04 04:35:37;;;;;;;8.60;2.00;;;14.60;90.80;;;;;;4998272;28;20619;-68
2022/09/04 04:38:27;;;;;;;7.13;2.10;;;14.50;90.70;;;;;;4990269;28;20047;-68
2022/09/04 04:41:31;;;;;;;3.92;1.77;;;14.50;90.70;;;;;;4990682;28;20050;-68
2022/09/04 04:44:17;;;;;;;4.50;1.77;;;14.50;91.10;;;;;;4977622;28;20069;-69
2022/09/04 04:47:06;;;;;;;4.05;1.92;;;14.50;91.20;;;;;;4995061;28;20045;-69
2022/09/04 04:49:39;;;;;;;4.68;1.80;;;14.50;91.20;;;;;;4993109;28;20448;-69
2022/09/04 04:52:17;;;;;;;9.70;1.90;;;14.40;90.90;;;;;;4974251;28;20046;-70
2022/09/04 04:55:10;;;;;;;6.43;1.83;;;14.40;91.00;;;;;;4996541;28;20054;-69
2022/09/04 04:58:10;;;;;;;3.67;1.98;;;14.40;91.40;;;;;;5070806;28;20053;-69
2022/09/04 05:01:14;;;;;;;7.30;1.98;;;14.40;91.70;;;;;;5063861;28;20556;-68
2022/09/04 05:03:59;;;;;;;8.32;1.75;;;14.30;91.70;;;;;;5067115;28;20053;-70
2022/09/04 05:06:37;;;;;;;4.63;1.58;;;14.30;91.50;;;;;;5069715;28;20044;-69
2022/09/04 05:09:15;;;;;;;4.93;1.95;;;14.30;91.40;;;;;;5070121;28;20056;-71
2022/09/04 05:11:40;;;;;;;4.30;1.70;;;14.30;91.50;;;;;;5071507;28;20032;-68
2022/09/04 05:14:25;;;;;;;5.60;1.92;;;14.30;91.40;;;;;;5071831;28;20043;-69
2022/09/04 05:17:03;;;;;;;3.17;1.63;;;14.30;91.50;;;;;;5064300;28;20082;-69
2022/09/04 05:20:16;;;;;;;4.53;1.70;;;14.30;91.50;;;;;;5068873;28;20048;-69
2022/09/04 05:23:14;;;;;;;4.72;1.80;;;14.30;92.00;;;;;;5048401;28;20149;-69
2022/09/04 05:25:52;;;;;;;5.20;2.05;;;14.30;92.00;;;;;;5031915;28;20530;-69
2022/09/04 05:28:32;;;;;;;4.10;2.00;;;14.30;91.90;;;;;;5048238;28;20083;-70
2022/09/04 05:31:33;;;;;;;7.85;1.60;;;14.30;91.60;;;;;;5031584;28;20132;-70
2022/09/04 05:34:17;;;;;;;7.50;2.33;;;14.40;92.40;;;;;;5048252;28;20270;-70
2022/09/04 05:37:04;;;;;;;7.78;1.95;;;14.40;91.60;;;;;;5047241;28;20049;-70
2022/09/04 05:40:13;;;;;;;5.57;1.77;;;14.40;91.70;;;;;;5031149;28;20090;-71
2022/09/04 05:43:14;;;;;;;4.50;2.10;;;14.40;92.10;;;;;;5037510;28;20053;-70
2022/09/04 05:46:16;;;;;;;4.97;2.05;;;14.50;91.90;;;;;;5047443;28;20636;-70
2022/09/04 05:49:06;;;;;;;4.88;1.95;;;14.50;92.00;;;;;;5047314;28;20041;-69
2022/09/04 05:51:47;;;;;;;4.22;1.95;;;14.50;91.90;;;;;;5047296;28;20053;-70
2022/09/04 05:54:27;;;;;;;3.47;1.95;;;14.50;92.60;;;;;;5047346;28;20037;-69
2022/09/04 05:57:10;;;;;;;4.80;1.70;;;14.50;92.20;;;;;;5047772;28;20049;-69
2022/09/04 06:00:02;;;;;;;4.20;1.80;;;14.50;92.10;;;;;;5065604;28;20064;-69
2022/09/04 06:02:58;;;;;;;6.90;1.90;;;14.60;92.30;;;;;;5064019;28;20032;-70
2022/09/04 06:05:40;;;;;;;8.77;2.03;;;14.60;92.00;;;;;;5064610;28;20407;-71
2022/09/04 06:08:40;;;;;;;5.15;1.95;;;14.60;92.20;;;;;;5069589;28;20519;-70
2022/09/04 06:11:25;;;;;;;5.53;1.90;;;14.70;92.90;;;;;;5027425;28;20057;-69
2022/09/04 06:14:03;;;;;;;7.18;1.98;;;14.70;92.50;;;;;;5027751;28;20073;-71
2022/09/04 06:16:45;;;;;;;5.35;2.03;;;14.70;92.50;;;;;;5011199;28;20042;-70
2022/09/04 06:19:35;;;;;;;5.78;2.17;;;14.80;92.70;;;;;;5027756;28;20056;-70
2022/09/04 06:22:06;;;;;;;5.68;2.28;;;14.80;92.50;;;;;;5026998;28;20618;-70
2022/09/04 06:24:38;;;;;;;9.57;2.58;;;14.80;92.30;;;;;;5027862;28;20088;-72
2022/09/04 06:27:20;;;;;;;5.75;2.05;;;14.90;92.80;;;;;;5010765;28;20060;-70
2022/09/04 06:29:51;;;;;;;3.55;2.08;;;14.90;92.40;;;;;;5010909;28;20585;-70
2022/09/04 06:32:36;;;;;;;5.40;2.00;;;14.90;92.70;;;;;;5010280;28;20192;-69
2022/09/04 06:35:39;;;;;;;9.00;2.40;;;15.00;92.90;;;;;;5010374;28;20443;-70
2022/09/04 06:38:26;;;;;;;5.07;2.03;;;15.00;92.80;;;;;;5026879;28;20807;-70
2022/09/04 06:41:18;;;;;;;5.00;2.28;;;15.10;92.80;;;;;;5027398;28;20072;-70
2022/09/04 06:44:00;;;;;;;6.43;2.00;;;15.10;92.70;;;;;;5027159;28;20053;-69
2022/09/04 06:46:29;;;;;;;6.75;2.30;;;15.20;92.50;;;;;;5021102;28;20053;-70
2022/09/04 06:49:18;;;;;;;10.80;1.88;;;15.30;92.70;;;;;;5064315;28;20545;-71
2022/09/04 06:52:18;;;;;;;6.07;2.17;;;15.30;92.60;;;;;;5062654;28;20491;-70
2022/09/04 06:55:21;;;;;;;6.00;2.35;;;15.40;92.80;;;;;;5063293;28;20060;-69
2022/09/04 06:57:47;;;;;;;6.05;2.20;;;15.50;92.90;;;;;;5063810;28;20052;-70
2022/09/04 07:00:18;;;;;;;4.82;2.25;;;15.60;92.50;;;;;;5069332;28;20045;-70
2022/09/04 07:03:22;;;;;;;6.25;2.05;;;15.70;92.60;;;;;;5069120;28;20056;-70
2022/09/04 07:05:52;;;;;;;5.38;1.90;;;15.70;92.80;;;;;;5066290;28;20110;-70
2022/09/04 07:08:41;;;;;;;7.75;2.05;;;15.90;92.60;;;;;;5071965;28;20044;-70
2022/09/04 07:11:16;;;;;;;3.78;1.80;;;15.90;92.90;;;;;;5073055;28;20060;-69
2022/09/04 07:14:03;;;;;;;4.72;1.98;;;16.00;92.80;;;;;;5066258;28;20047;-70
2022/09/04 07:16:47;;;;;;;5.05;2.00;;;16.10;92.70;;;;;;5072231;28;20400;-70
2022/09/04 07:19:49;;;;;;;5.60;2.43;;;16.20;92.50;;;;;;5072211;28;20037;-71
2022/09/04 07:22:45;;;;;;;4.95;1.70;;;16.30;92.70;;;;;;5068860;28;20052;-69
2022/09/04 07:25:14;;;;;;;;;;;16.40;92.40;;;;;;5069702;28;20049;-72
2022/09/04 07:27:56;;;;;;;4.72;2.20;;;16.60;92.50;;;;;;5072697;28;20026;-70
2022/09/04 07:30:25;;;;;;;7.65;2.30;;;16.60;92.20;;;;;;5072301;28;20106;-70
2022/09/04 07:32:56;;;;;;;5.00;2.00;;;16.90;92.30;;;;;;5071387;28;20093;-70
2022/09/04 07:35:27;;;;;;;4.38;2.05;;;16.80;92.20;;;;;;5073058;28;20041;-69
2022/09/04 07:38:07;;;;;;;5.05;2.25;;;17.00;92.20;;;;;;5064601;28;20079;-70
2022/09/04 07:40:41;;;;;;;8.25;1.92;;;17.10;92.10;;;;;;5072093;28;20082;-71
2022/09/04 07:43:26;;;;;;;6.70;2.20;;;17.20;92.10;;;;;;5072846;28;20049;-70
2022/09/04 07:46:21;;;;;;;6.45;2.20;;;17.40;92.10;;;;;;5071276;28;20503;-71
2022/09/04 07:48:55;;;;;;;6.60;2.10;;;17.50;92.00;;;;;;5072070;28;20131;-71
2022/09/04 07:51:28;;;;;;;;;;;17.70;92.10;;;;;;5071830;28;20094;-70
2022/09/04 07:54:25;;;;;;;5.07;1.98;;;17.80;91.90;;;;;;5072497;28;20279;-70
2022/09/04 07:56:53;;;;;;;7.55;2.08;;;17.90;91.80;;;;;;5070642;28;20486;-71
2022/09/04 07:59:47;;;;;;;6.18;2.55;;;18.00;91.70;;;;;;5072334;28;20044;-72
2022/09/04 08:02:26;;;;;;;6.68;1.85;;;18.20;91.50;;;;;;5067245;28;20040;-71
2022/09/04 08:05:20;;;;;;;5.82;2.42;;;18.40;91.60;;;;;;5071141;28;20119;-70
2022/09/04 08:07:57;;;;;;;6.13;2.00;;;18.50;91.50;;;;;;5071941;28;20048;-70
2022/09/04 08:10:45;;;;;;;6.00;1.75;;;18.70;91.50;;;;;;5072696;28;20040;-71
2022/09/04 08:13:46;;;;;;;6.75;2.08;;;18.80;91.30;;;;;;5065717;28;20040;-71
2022/09/04 08:16:18;;;;;;;4.75;1.90;;;19.10;91.20;;;;;;5066227;28;20090;-72
2022/09/04 08:18:53;;;;;;;7.10;2.03;;;19.30;91.10;;;;;;5072819;28;20055;-71
2022/09/04 08:21:33;;;;;;;5.72;2.10;;;19.50;91.00;;;;;;5073005;28;20064;-70
2022/09/04 08:24:17;;;;;;;4.43;1.60;;;19.80;91.00;;;;;;5072725;28;20063;-70
2022/09/04 08:27:18;;;;;;;5.53;2.00;;;20.10;90.70;;;;;;5071213;28;20051;-71
2022/09/04 08:29:44;;;;;;;9.90;1.98;;;20.40;90.30;;;;;;5021707;28;20554;-72
2022/09/04 08:32:30;;;;;;;5.80;1.92;;;20.60;90.50;;;;;;5029581;28;20045;-71
2022/09/04 08:35:06;;;;;;;5.07;1.73;;;20.80;90.00;;;;;;5029800;28;20053;-71
2022/09/04 08:37:53;;;;;;;3.70;1.80;;;21.00;90.10;;;;;;5012226;28;20492;-71
2022/09/04 08:40:24;;;;;;;5.40;1.70;;;21.20;90.10;;;;;;5029350;28;20050;-70
2022/09/04 08:43:26;;;;;;;8.02;2.15;;;21.50;89.50;;;;;;5012912;28;20157;-71
2022/09/04 08:46:17;;;;;;;3.38;1.65;;;21.70;89.60;;;;;;5012477;28;20047;-70
2022/09/04 08:49:19;;;;;;;3.03;1.60;;;21.90;88.70;;;;;;5012010;28;20451;-70
2022/09/04 08:52:22;;;;;;;8.45;1.45;;;22.20;88.40;;;;;;5029615;28;20053;-71
2022/09/04 08:55:08;;;;;;;5.05;1.58;;;22.40;87.60;;;;;;5029639;28;20061;-71
2022/09/04 08:57:48;;;;;;;3.75;1.48;;;22.70;88.50;;;;;;5029234;28;20041;-73
2022/09/04 09:00:39;;;;;;;2.28;1.40;;;23.00;87.70;;;;;;5027980;28;20057;-73
2022/09/04 09:03:28;;;;;;;8.98;1.48;;;23.10;87.50;;;;;;5002947;28;20104;-70
2022/09/04 09:06:12;;;;;;;2.83;1.40;;;23.40;85.80;;;;;;5040221;28;20067;-69
2022/09/04 09:09:23;;;;;;;8.30;1.70;;;23.50;86.20;;;;;;5067996;28;20044;-71
2022/09/04 09:12:03;;;;;;;4.45;1.30;;;23.50;85.90;;;;;;5065976;28;20491;-70
2022/09/04 09:14:46;;;;;;;5.43;1.60;;;23.70;86.70;;;;;;5070012;28;20048;-72
2022/09/04 09:17:15;;;;;;;8.27;1.58;;;23.60;84.70;;;;;;5070397;28;20045;-72
2022/09/04 09:19:58;;;;;;;3.60;1.38;;;23.80;86.20;;;;;;5071375;28;20422;-71
2022/09/04 09:23:01;;;;;;;5.25;1.60;;;24.00;83.90;;;;;;5069651;28;20442;-70
2022/09/04 09:25:47;;;;;;;4.32;1.73;;;24.30;84.50;;;;;;5065475;28;20052;-69
2022/09/04 09:28:19;;;;;;;6.80;1.60;;;24.30;84.40;;;;;;5049289;28;20044;-71
2022/09/04 09:31:33;;;;;;;4.15;1.60;;;24.30;84.10;;;;;;5057958;28;20170;-71
2022/09/04 09:34:25;;;;;;;5.25;1.35;;;24.50;84.10;;;;;;5028190;28;20056;-71
2022/09/04 09:37:09;;;;;;;5.15;1.23;;;24.50;82.50;;;;;;5045872;28;20064;-71
2022/09/04 09:39:44;;;;;;;3.95;1.15;;;24.70;84.50;;;;;;5066323;28;20052;-72
2022/09/04 09:42:18;;;;;;;;;;;24.80;84.60;;;;;;5057641;28;20043;-71
2022/09/04 09:44:53;;;;;;;4.50;1.67;;;24.90;82.00;;;;;;5059410;28;19931;-70
2022/09/04 09:47:53;;;;;;;4.45;1.60;;;24.90;83.30;;;;;;5050259;28;20057;-71
2022/09/04 09:50:38;;;;;;;3.20;1.27;;;25.10;82.60;;;;;;5038640;28;20053;-72
2022/09/04 09:53:27;;;;;;;6.57;1.48;;;25.30;82.80;;;;;;5047913;28;20053;-70
2022/09/04 09:56:20;;;;;;;4.65;2.65;;;25.30;82.20;;;;;;5048608;28;20047;-71
2022/09/04 09:59:08;;;;;;;3.80;1.00;;;25.30;81.70;;;;;;5048380;28;20045;-72
2022/09/04 10:02:03;;;;;;;3.88;1.30;;;25.40;81.50;;;;;;5048190;28;20065;-71
2022/09/04 10:04:59;;;;;;;5.82;1.30;;;25.50;79.80;;;;;;5031509;28;20420;-71
2022/09/04 10:08:02;;;;;;;3.72;1.30;;;25.60;81.20;;;;;;5048061;28;20075;-72
2022/09/04 10:10:49;;;;;;;3.22;1.38;;;25.70;80.40;;;;;;5049317;28;20466;-71
2022/09/04 10:13:33;;;;;;;3.75;1.40;;;26.00;80.10;;;;;;5050726;28;20044;-72
2022/09/04 10:16:19;;;;;;;5.35;1.05;;;26.10;81.20;;;;;;5050573;28;20109;-71
2022/09/04 10:19:15;;;;;;;4.35;1.10;;;26.30;80.90;;;;;;5049204;28;20063;-72
2022/09/04 10:22:10;;;;;;;4.28;1.00;;;26.40;79.40;;;;;;5062713;28;20051;-72
2022/09/04 10:25:01;;;;;;;4.68;1.50;;;26.40;79.20;;;;;;5066489;28;20091;-72
2022/09/04 10:27:51;;;;;;;5.22;1.10;;;26.50;78.70;;;;;;5050403;28;20062;-72
2022/09/04 10:30:22;;;;;;;2.08;0.90;;;26.50;79.20;;;;;;5066170;28;20495;-75
2022/09/04 10:33:17;;;;;;;4.53;1.40;;;26.70;79.60;;;;;;5065397;28;20166;-73
2022/09/04 10:36:10;;;;;;;4.97;1.40;;;26.70;77.00;;;;;;5064066;28;20053;-72
2022/09/04 10:40:34;;;;;;;4.25;1.13;;;26.70;78.40;;;;;;5069801;28;20151;-72
2022/09/04 10:41:45;;;;;;;2.78;1.05;;;26.70;78.70;;;;;;5068516;28;20052;-73
2022/09/04 10:44:38;;;;;;;3.38;1.17;;;26.80;78.00;;;;;;5069835;28;20048;-72
2022/09/04 10:47:36;;;;;;;3.83;0.95;;;26.90;78.30;;;;;;5070133;28;20466;-74
2022/09/04 10:50:36;;;;;;;5.25;1.20;;;27.00;78.70;;;;;;5065032;28;20048;-72
2022/09/04 10:53:21;;;;;;;3.70;1.50;;;27.10;78.10;;;;;;5022893;28;20114;-71
2022/09/04 10:56:05;;;;;;;9.77;1.30;;;27.00;77.50;;;;;;5046733;28;20443;-72
2022/09/04 10:58:47;;;;;;;4.53;1.30;;;27.10;77.40;;;;;;5047307;28;20119;-72
2022/09/04 11:01:53;;;;;;;5.97;1.60;;;27.20;77.50;;;;;;5034164;28;20519;-71
2022/09/04 11:04:44;;;;;;;2.90;1.00;;;27.30;77.20;;;;;;5047548;28;20057;-72
2022/09/04 11:07:27;;;;;;;5.63;1.10;;;27.40;77.30;;;;;;5047035;28;20049;-71
2022/09/04 11:10:37;;;;;;;4.30;1.10;;;27.50;77.50;;;;;;5064203;28;20048;-72
2022/09/04 11:13:37;;;;;;;4.47;0.95;;;27.70;77.70;;;;;;5006879;28;20053;-74
2022/09/04 11:16:23;;;;;;;3.05;1.10;;;27.80;76.40;;;;;;5006668;28;20057;-73
2022/09/04 11:19:21;;;;;;;3.92;1.77;;;28.00;76.90;;;;;;4989064;28;20165;-71
2022/09/04 11:21:53;;;;;;;4.43;1.20;;;28.10;77.20;;;;;;4991691;28;20486;-72
2022/09/04 11:24:21;;;;;;;4.95;1.25;;;28.10;76.80;;;;;;4980509;28;20038;-72
2022/09/04 11:27:12;;;;;;;7.25;1.50;;;28.20;77.20;;;;;;5021733;28;20508;-71
2022/09/04 11:30:01;;;;;;;3.97;1.55;;;28.40;75.90;;;;;;5010394;28;20061;-71
2022/09/04 11:32:52;;;;;;;6.15;1.00;;;28.40;75.70;;;;;;5020003;28;20141;-71
2022/09/04 11:35:35;;;;;;;5.00;1.10;;;28.30;75.00;;;;;;4999107;28;20128;-74
2022/09/04 11:38:42;;;;;;;4.50;1.20;;;28.30;76.30;;;;;;5006611;28;20572;-71
2022/09/04 11:41:08;;;;;;;7.03;1.20;;;28.40;76.40;;;;;;5006953;28;20133;-71
2022/09/04 11:43:42;;;;;;;1.67;0.85;;;28.50;76.00;;;;;;5007348;28;20046;-74
2022/09/04 11:46:20;;;;;;;;;;;28.60;75.40;;;;;;4990895;28;20101;-72
2022/09/04 11:48:48;;;;;;;4.55;1.10;;;28.60;76.20;;;;;;5032016;28;19924;-71
2022/09/04 11:51:20;;;;;;;1.90;1.10;;;28.60;76.40;;;;;;5066170;28;20549;-72
2022/09/04 11:54:06;;;;;;;3.83;1.10;;;28.70;76.30;;;;;;5053175;28;20148;-73
2022/09/04 11:57:01;;;;;;;1.70;1.00;;;28.70;75.80;;;;;;5070307;28;20045;-72
2022/09/04 11:59:41;;;;;;;6.55;1.33;;;28.80;75.60;;;;;;5069654;28;20060;-72
2022/09/04 12:02:42;;;;;;;3.25;1.20;;;28.90;75.70;;;;;;5070382;28;20071;-73
2022/09/04 12:05:49;;;;;;;6.72;1.27;;;29.10;74.30;;;;;;5070116;28;20526;-75
2022/09/04 12:08:34;;;;;;;1.60;0.90;;;29.00;74.40;;;;;;4990145;28;20528;-73
2022/09/04 12:11:49;;;;;;;2.67;1.08;;;29.00;74.80;;;;;;4990915;28;20154;-72
2022/09/04 12:14:27;;;;;;;2.35;1.02;;;29.00;74.70;;;;;;4992536;28;20052;-72
2022/09/04 12:17:24;;;;;;;2.53;1.00;;;28.90;74.90;;;;;;4993930;28;20062;-73
2022/09/04 12:20:27;;;;;;;1.88;0.98;;;28.90;74.80;;;;;;5009837;28;20436;-73
2022/09/04 12:23:07;;;;;;;4.70;1.13;;;28.90;74.40;;;;;;4993493;28;20065;-72
2022/09/04 12:25:52;;;;;;;4.07;1.40;;;28.90;75.00;;;;;;5002760;28;20057;-73
2022/09/04 12:28:23;;;;;;;;;;;28.80;74.10;;;;;;4993736;28;20127;-74
2022/09/04 12:30:59;;;;;;;3.72;1.08;;;28.90;74.40;;;;;;5010009;28;19932;-72
2022/09/04 12:33:45;;;;;;;4.20;1.15;;;29.20;74.70;;;;;;4993182;28;20050;-73
2022/09/04 12:36:28;;;;;;;2.60;0.90;;;29.30;74.50;;;;;;5009418;28;20046;-72
2022/09/04 12:39:12;;;;;;;4.90;1.00;;;29.40;75.40;;;;;;5009824;28;20045;-72
2022/09/04 12:42:09;;;;;;;3.63;1.20;;;29.50;74.90;;;;;;5008993;28;20046;-73
2022/09/04 12:44:54;;;;;;;7.38;1.70;;;29.50;72.80;;;;;;5046758;28;20057;-73
2022/09/04 12:47:31;;;;;;;2.50;1.00;;;29.60;74.90;;;;;;5070935;28;20051;-73
2022/09/04 12:50:27;;;;;;;2.08;0.70;;;29.60;74.80;;;;;;5071775;28;20562;-73
2022/09/04 12:53:11;;;;;;;7.28;1.45;;;29.80;74.50;;;;;;5071354;28;20059;-75
2022/09/04 12:56:02;;;;;;;10.68;1.15;;;29.80;73.80;;;;;;5070482;28;20101;-72
2022/09/04 12:59:06;;;;;;;2.13;0.95;;;29.90;74.10;;;;;;5072335;28;20075;-73
2022/09/04 13:01:47;;;;;;;2.67;1.00;;;29.80;74.00;;;;;;5070494;28;20471;-69
2022/09/04 13:04:28;;;;;;;3.58;0.90;;;29.80;74.30;;;;;;5071803;28;20130;-74
2022/09/04 13:06:55;;;;;;;3.33;1.17;;;29.70;73.40;;;;;;5071125;28;20041;-71
2022/09/04 13:09:31;;;;;;;1.77;1.00;;;30.00;74.30;;;;;;5070629;28;20055;-71
2022/09/04 13:12:14;;;;;;;6.07;1.00;;;30.00;73.20;;;;;;5070658;28;20064;-71
2022/09/04 13:14:59;;;;;;;3.55;1.00;;;30.00;72.90;;;;;;5072213;28;20100;-73
2022/09/04 13:17:51;;;;;;;5.28;1.10;;;30.10;73.70;;;;;;5071588;28;20044;-69
2022/09/04 13:20:28;;;;;;;7.47;1.27;;;30.20;72.80;;;;;;5069729;28;20057;-71
2022/09/04 13:23:12;;;;;;;5.70;0.90;;;30.20;72.70;;;;;;5069875;28;20128;-70
2022/09/04 13:25:56;;;;;;;4.93;1.10;;;30.30;72.40;;;;;;5069967;28;20051;-70
2022/09/04 13:28:34;;;;;;;3.38;1.10;;;30.30;73.40;;;;;;5070361;28;20084;-72
2022/09/04 13:31:18;;;;;;;5.85;1.50;;;30.30;73.30;;;;;;5066278;28;20053;-70
2022/09/04 13:34:02;;;;;;;6.72;1.00;;;30.40;72.80;;;;;;5060776;28;20044;-72
2022/09/04 13:37:03;;;;;;;4.70;1.00;;;30.40;72.10;;;;;;5069492;28;20047;-77
2022/09/04 13:39:53;;;;;;;3.38;1.05;;;30.50;71.90;;;;;;5061027;28;20495;-71
2022/09/04 13:42:40;;;;;;;5.03;1.05;;;30.40;71.90;;;;;;5071351;28;20127;-71
2022/09/04 13:45:21;;;;;;;2.88;1.10;;;30.40;72.10;;;;;;5067641;28;20044;-71
2022/09/04 13:48:08;;;;;;;2.75;1.33;;;30.40;72.70;;;;;;5070901;28;20088;-71
2022/09/04 13:50:51;;;;;;;3.20;0.80;;;30.30;71.10;;;;;;5069184;28;20119;-70
2022/09/04 13:53:20;;;;;;;1.75;0.90;;;30.20;72.20;;;;;;5052614;28;20044;-71
2022/09/04 13:55:53;;;;;;;5.45;1.35;;;30.10;72.40;;;;;;5070412;28;20412;-72
2022/09/04 13:58:39;;;;;;;4.10;1.23;;;30.20;72.30;;;;;;5070088;28;20090;-71
2022/09/04 14:01:08;;;;;;;5.20;1.05;;;30.20;71.40;;;;;;5070258;28;20048;-72
2022/09/04 14:03:39;;;;;;;2.28;0.98;;;30.30;72.60;;;;;;5070203;28;20053;-71
2022/09/04 14:06:09;;;;;;;3.50;1.25;;;30.30;72.10;;;;;;5069723;28;20059;-74
2022/09/04 14:08:38;;;;;;;6.50;1.20;;;30.20;72.30;;;;;;5070086;28;20048;-71
2022/09/04 14:11:10;;;;;;;7.53;1.63;;;30.30;72.20;;;;;;5068797;28;20052;-72
2022/09/04 14:14:09;;;;;;;4.35;1.30;;;30.30;72.30;;;;;;5068358;28;20040;-71
2022/09/04 14:16:38;;;;;;;2.33;0.90;;;30.20;71.50;;;;;;5068914;28;20052;-71
2022/09/04 14:19:16;;;;;;;7.63;1.45;;;30.20;72.30;;;;;;5070329;28;20044;-72
2022/09/04 14:22:06;;;;;;;3.42;0.85;;;30.30;72.30;;;;;;5069856;28;20036;-73